createdAt,value
2018-03-29T00:00:40.511Z,8.80
2018-03-29T00:03:07.971Z,8.80
2018-03-29T00:05:35.487Z,8.80
2018-03-29T00:08:03.920Z,8.70
2018-03-29T00:10:31.382Z,8.70
2018-03-29T00:12:58.839Z,8.70
2018-03-29T00:15:26.302Z,8.70
2018-03-29T00:17:53.759Z,8.70
2018-03-29T00:20:21.215Z,8.60
2018-03-29T00:22:48.950Z,8.60
2018-03-29T00:25:16.413Z,8.60
2018-03-29T00:27:43.884Z,8.60
2018-03-29T00:30:11.629Z,8.60
2018-03-29T00:32:39.090Z,8.50
2018-03-29T00:35:06.543Z,8.50
2018-03-29T00:37:34.010Z,8.60
2018-03-29T00:40:01.464Z,8.50
2018-03-29T00:42:28.921Z,8.50
2018-03-29T00:44:56.369Z,8.50
2018-03-29T00:47:23.826Z,8.40
2018-03-29T00:49:51.290Z,8.40
2018-03-29T00:52:18.748Z,8.40
2018-03-29T00:54:46.210Z,8.40
2018-03-29T00:57:13.899Z,8.40
2018-03-29T00:59:41.362Z,8.40
2018-03-29T01:02:08.805Z,8.40
2018-03-29T01:04:36.267Z,8.40
2018-03-29T01:07:03.731Z,8.30
2018-03-29T01:09:31.454Z,8.30
2018-03-29T01:11:59.132Z,8.20
2018-03-29T01:14:26.590Z,8.20
2018-03-29T01:16:54.056Z,8.20
2018-03-29T01:19:21.515Z,8.10
2018-03-29T01:21:48.974Z,8.00
2018-03-29T01:24:16.440Z,7.90
2018-03-29T01:26:43.904Z,7.90
2018-03-29T01:29:11.366Z,7.80
2018-03-29T01:31:38.813Z,7.80
2018-03-29T01:34:06.270Z,7.70
2018-03-29T01:36:33.725Z,7.70
2018-03-29T01:39:01.190Z,7.70
2018-03-29T01:41:28.646Z,7.60
2018-03-29T01:43:57.081Z,7.60
2018-03-29T01:46:24.550Z,7.60
2018-03-29T01:48:52.003Z,7.60
2018-03-29T01:51:19.465Z,7.50
2018-03-29T01:53:46.934Z,7.50
2018-03-29T01:56:14.408Z,7.40
2018-03-29T01:58:41.857Z,7.40
2018-03-29T02:01:09.314Z,7.40
2018-03-29T02:03:36.778Z,7.40
2018-03-29T02:06:05.003Z,7.20
2018-03-29T02:08:32.451Z,7.20
2018-03-29T02:11:00.683Z,7.00
2018-03-29T02:13:28.427Z,7.00
2018-03-29T02:15:55.886Z,6.90
2018-03-29T02:18:23.339Z,6.80
2018-03-29T02:20:51.010Z,6.70
2018-03-29T02:23:18.469Z,6.70
2018-03-29T02:25:45.926Z,6.70
2018-03-29T02:28:13.393Z,6.70
2018-03-29T02:30:40.858Z,6.60
2018-03-29T02:33:08.319Z,6.60
2018-03-29T02:35:35.779Z,6.60
2018-03-29T02:38:03.240Z,6.50
2018-03-29T02:40:30.693Z,6.40
2018-03-29T02:42:58.145Z,6.40
2018-03-29T02:45:25.612Z,6.40
2018-03-29T02:47:53.062Z,6.40
2018-03-29T02:50:20.749Z,6.40
2018-03-29T02:52:48.983Z,6.40
2018-03-29T02:55:16.450Z,6.40
2018-03-29T02:57:43.900Z,6.50
2018-03-29T03:00:11.353Z,6.40
2018-03-29T03:02:38.798Z,6.30
2018-03-29T03:05:06.258Z,6.30
2018-03-29T03:07:33.712Z,6.30
2018-03-29T03:10:01.567Z,6.30
2018-03-29T03:12:29.026Z,6.30
2018-03-29T03:14:56.487Z,6.30
2018-03-29T03:17:23.941Z,6.20
2018-03-29T03:19:51.698Z,6.20
2018-03-29T03:22:19.666Z,6.30
2018-03-29T03:24:47.434Z,6.30
2018-03-29T03:27:14.899Z,6.30
2018-03-29T03:29:42.654Z,6.30
2018-03-29T03:32:10.124Z,6.30
2018-03-29T03:34:37.575Z,6.30
2018-03-29T03:37:05.043Z,6.30
2018-03-29T03:39:32.477Z,6.40
2018-03-29T03:41:59.943Z,6.30
2018-03-29T03:44:27.427Z,6.40
2018-03-29T03:46:54.870Z,6.50
2018-03-29T03:49:22.617Z,6.50
2018-03-29T03:51:50.078Z,6.60
2018-03-29T03:54:17.534Z,6.60
2018-03-29T03:59:18.806Z,6.60
2018-03-29T04:01:46.564Z,6.50
2018-03-29T04:04:14.119Z,6.50
2018-03-29T04:06:41.571Z,6.40
2018-03-29T04:09:09.026Z,6.20
2018-03-29T04:11:36.475Z,6.20
2018-03-29T04:14:03.935Z,6.10
2018-03-29T04:16:31.385Z,6.10
2018-03-29T04:18:58.846Z,6.10
2018-03-29T04:21:26.526Z,6.00
2018-03-29T04:23:53.995Z,6.00
2018-03-29T04:26:21.453Z,6.00
2018-03-29T04:28:49.314Z,5.90
2018-03-29T04:31:16.767Z,6.00
2018-03-29T04:33:44.240Z,6.00
2018-03-29T04:36:11.982Z,6.00
2018-03-29T04:38:39.450Z,6.00
2018-03-29T04:41:06.922Z,5.90
2018-03-29T04:43:34.379Z,5.90
2018-03-29T04:46:01.833Z,6.00
2018-03-29T04:48:29.280Z,6.10
2018-03-29T04:50:56.738Z,6.10
2018-03-29T04:53:24.191Z,6.10
2018-03-29T04:55:51.654Z,6.10
2018-03-29T04:58:19.413Z,6.10
2018-03-29T05:00:46.870Z,6.00
2018-03-29T05:03:14.325Z,5.90
2018-03-29T05:05:41.786Z,5.90
2018-03-29T05:08:09.542Z,5.90
2018-03-29T05:10:37.010Z,5.90
2018-03-29T05:13:04.475Z,5.90
2018-03-29T05:15:31.931Z,5.90
2018-03-29T05:17:59.385Z,5.90
2018-03-29T05:20:26.841Z,5.80
2018-03-29T05:22:54.334Z,5.70
2018-03-29T05:25:21.798Z,5.70
2018-03-29T05:27:54.079Z,5.60
2018-03-29T05:30:22.307Z,5.60
2018-03-29T05:32:49.779Z,5.60
2018-03-29T05:35:17.222Z,5.60
2018-03-29T05:37:44.689Z,5.60
2018-03-29T05:40:12.139Z,5.60
2018-03-29T05:42:39.602Z,5.60
2018-03-29T05:45:07.054Z,5.60
2018-03-29T05:47:34.507Z,5.60
2018-03-29T05:50:01.960Z,5.60
2018-03-29T05:52:29.420Z,5.60
2018-03-29T05:54:56.875Z,5.60
2018-03-29T05:57:24.330Z,5.50
2018-03-29T05:59:51.821Z,5.60
2018-03-29T06:02:19.280Z,5.50
2018-03-29T06:04:46.746Z,5.60
2018-03-29T06:07:14.196Z,5.60
2018-03-29T06:09:41.666Z,5.70
2018-03-29T06:12:09.884Z,5.80
2018-03-29T06:14:43.177Z,5.80
2018-03-29T06:17:25.523Z,5.90
2018-03-29T06:19:52.999Z,6.10
2018-03-29T06:22:20.447Z,6.20
2018-03-29T06:24:47.898Z,6.10
2018-03-29T06:27:15.362Z,6.20
2018-03-29T06:29:42.823Z,6.10
2018-03-29T06:32:11.046Z,6.00
2018-03-29T06:34:38.721Z,5.90
2018-03-29T06:37:06.188Z,5.90
2018-03-29T06:39:33.643Z,6.00
2018-03-29T06:42:01.101Z,6.00
2018-03-29T06:44:28.564Z,6.00
2018-03-29T06:46:56.055Z,6.10
2018-03-29T06:49:23.488Z,6.10
2018-03-29T06:51:50.943Z,6.10
2018-03-29T06:54:18.410Z,6.10
2018-03-29T06:56:45.862Z,6.10
2018-03-29T06:59:13.346Z,6.10
2018-03-29T07:01:41.572Z,6.20
2018-03-29T07:04:09.038Z,6.20
2018-03-29T07:06:36.504Z,6.20
2018-03-29T07:09:03.960Z,6.30
2018-03-29T07:11:31.424Z,6.30
2018-03-29T07:13:58.878Z,6.40
2018-03-29T07:16:26.342Z,6.40
2018-03-29T07:18:53.802Z,6.40
2018-03-29T07:21:21.266Z,6.30
2018-03-29T07:23:48.748Z,6.30
2018-03-29T07:26:16.974Z,6.30
2018-03-29T07:28:44.442Z,6.30
2018-03-29T07:31:11.912Z,6.20
2018-03-29T07:33:39.379Z,6.30
2018-03-29T07:36:07.602Z,6.50
2018-03-29T07:38:35.363Z,6.50
2018-03-29T07:41:02.821Z,6.60
2018-03-29T07:43:30.287Z,6.70
2018-03-29T07:45:57.744Z,6.70
2018-03-29T07:48:25.201Z,6.70
2018-03-29T07:50:53.670Z,6.70
2018-03-29T07:53:21.152Z,6.70
2018-03-29T07:55:48.613Z,6.60
2018-03-29T07:58:21.973Z,6.60
2018-03-29T08:00:49.434Z,6.70
2018-03-29T08:03:16.893Z,6.80
2018-03-29T08:05:44.345Z,6.80
2018-03-29T08:08:11.812Z,6.80
2018-03-29T08:10:39.279Z,6.90
2018-03-29T08:13:06.740Z,7.10
2018-03-29T08:15:34.194Z,7.20
2018-03-29T08:18:01.657Z,7.20
2018-03-29T08:20:29.124Z,7.20
2018-03-29T08:22:56.574Z,7.30
2018-03-29T08:25:24.071Z,7.40
2018-03-29T08:27:52.290Z,7.40
2018-03-29T08:30:19.771Z,7.40
2018-03-29T08:32:47.338Z,7.30
2018-03-29T08:35:15.058Z,7.20
2018-03-29T08:37:45.326Z,7.10
2018-03-29T08:40:12.793Z,7.10
2018-03-29T08:42:40.247Z,7.20
2018-03-29T08:45:07.770Z,7.30
2018-03-29T08:47:35.232Z,7.20
2018-03-29T08:50:02.701Z,7.20
2018-03-29T08:52:30.169Z,7.20
2018-03-29T08:54:57.894Z,7.40
2018-03-29T08:57:25.359Z,7.40
2018-03-29T08:59:52.815Z,7.50
2018-03-29T09:02:20.275Z,7.70
2018-03-29T09:04:47.740Z,7.90
2018-03-29T09:07:15.196Z,7.90
2018-03-29T09:09:42.642Z,8.00
2018-03-29T09:12:10.110Z,8.10
2018-03-29T09:14:38.332Z,8.20
2018-03-29T09:17:06.558Z,8.50
2018-03-29T09:19:34.010Z,8.50
2018-03-29T09:22:01.492Z,8.60
2018-03-29T09:24:28.955Z,8.90
2018-03-29T09:26:56.419Z,8.90
2018-03-29T09:29:23.867Z,9.00
2018-03-29T09:31:51.322Z,8.70
2018-03-29T09:34:18.780Z,8.90
2018-03-29T09:36:47.326Z,9.20
2018-03-29T09:39:14.794Z,9.20
2018-03-29T09:41:42.470Z,9.30
2018-03-29T09:44:09.942Z,9.20
2018-03-29T09:46:37.402Z,9.10
2018-03-29T09:49:04.858Z,9.00
2018-03-29T09:51:32.322Z,9.10
2018-03-29T09:53:59.778Z,9.10
2018-03-29T09:56:27.495Z,9.00
2018-03-29T09:58:54.958Z,8.90
2018-03-29T10:01:22.439Z,8.90
2018-03-29T10:03:52.754Z,9.00
2018-03-29T10:06:26.091Z,8.80
2018-03-29T10:08:54.325Z,9.10
2018-03-29T10:11:21.775Z,9.10
2018-03-29T10:13:49.454Z,9.20
2018-03-29T10:16:16.905Z,8.90
2018-03-29T10:18:44.589Z,9.00
2018-03-29T10:21:12.061Z,9.40
2018-03-29T10:23:40.310Z,9.60
2018-03-29T10:26:07.766Z,9.50
2018-03-29T10:28:35.509Z,9.50
2018-03-29T10:31:02.978Z,9.20
2018-03-29T10:33:30.441Z,9.40
2018-03-29T10:35:58.173Z,9.80
2018-03-29T10:38:25.635Z,10.10
2018-03-29T10:40:53.103Z,10.30
2018-03-29T10:43:20.560Z,10.60
2018-03-29T10:45:48.035Z,10.70
2018-03-29T10:48:15.491Z,10.70
2018-03-29T10:50:42.966Z,10.70
2018-03-29T10:53:10.437Z,10.60
2018-03-29T10:55:37.891Z,10.70
2018-03-29T10:58:05.352Z,10.90
2018-03-29T11:00:32.823Z,11.10
2018-03-29T11:03:01.074Z,11.30
2018-03-29T11:05:28.529Z,11.30
2018-03-29T11:07:56.218Z,11.30
2018-03-29T11:10:24.657Z,11.30
2018-03-29T11:12:52.178Z,11.30
2018-03-29T11:15:19.642Z,11.20
2018-03-29T11:17:47.407Z,11.30
2018-03-29T11:20:16.685Z,11.20
2018-03-29T11:22:44.161Z,11.40
2018-03-29T11:25:11.640Z,11.40
2018-03-29T11:27:39.122Z,11.60
2018-03-29T11:30:06.591Z,11.60
2018-03-29T11:32:34.063Z,11.60
2018-03-29T11:35:02.291Z,11.70
2018-03-29T11:37:29.760Z,11.70
2018-03-29T11:39:57.228Z,11.70
2018-03-29T11:42:24.709Z,11.80
2018-03-29T11:44:52.942Z,11.70
2018-03-29T11:47:21.176Z,11.70
2018-03-29T11:49:48.643Z,11.70
2018-03-29T11:52:16.097Z,11.60
2018-03-29T11:54:43.558Z,11.80
2018-03-29T11:57:11.020Z,12.10
2018-03-29T11:59:38.498Z,12.20
2018-03-29T12:02:05.969Z,12.20
2018-03-29T12:04:34.523Z,12.60
2018-03-29T12:07:02.002Z,12.60
2018-03-29T12:09:29.473Z,12.60
2018-03-29T12:11:57.198Z,12.60
2018-03-29T12:14:24.650Z,12.60
2018-03-29T12:16:52.114Z,12.40
2018-03-29T12:19:19.566Z,12.40
2018-03-29T12:21:47.039Z,12.20
2018-03-29T12:24:14.490Z,11.90
2018-03-29T12:26:41.950Z,11.80
2018-03-29T12:29:09.406Z,11.80
2018-03-29T12:31:36.867Z,11.80
2018-03-29T12:34:04.619Z,12.00
2018-03-29T12:36:32.098Z,12.20
2018-03-29T12:38:59.576Z,12.10
2018-03-29T12:41:27.051Z,12.10
2018-03-29T12:43:55.285Z,11.50
2018-03-29T12:46:22.751Z,11.50
2018-03-29T12:48:50.486Z,11.60
2018-03-29T12:51:17.947Z,11.60
2018-03-29T12:53:45.465Z,12.00
2018-03-29T12:56:24.667Z,12.30
2018-03-29T12:58:52.138Z,12.20
2018-03-29T13:01:19.594Z,11.80
2018-03-29T13:03:47.049Z,12.00
2018-03-29T13:06:14.506Z,11.90
2018-03-29T13:08:41.975Z,11.80
2018-03-29T13:11:09.445Z,11.70
2018-03-29T13:13:37.680Z,12.00
2018-03-29T13:16:05.139Z,11.90
2018-03-29T13:18:32.606Z,12.00
2018-03-29T13:21:00.070Z,11.90
2018-03-29T13:23:27.535Z,11.90
2018-03-29T13:25:55.770Z,11.80
2018-03-29T13:28:24.104Z,11.80
2018-03-29T13:30:52.647Z,11.50
2018-03-29T13:33:20.092Z,11.50
2018-03-29T13:35:47.558Z,11.50
2018-03-29T13:38:15.021Z,11.50
2018-03-29T13:40:43.258Z,11.40
2018-03-29T13:43:10.719Z,11.40
2018-03-29T13:45:38.188Z,11.10
2018-03-29T13:48:05.648Z,11.10
2018-03-29T13:50:33.130Z,11.20
2018-03-29T13:53:00.597Z,11.00
2018-03-29T13:55:28.054Z,11.00
2018-03-29T13:57:55.519Z,11.10
2018-03-29T14:00:22.984Z,11.20
2018-03-29T14:02:51.214Z,11.50
2018-03-29T14:05:18.664Z,11.50
2018-03-29T14:07:46.126Z,11.60
2018-03-29T14:10:13.578Z,11.60
2018-03-29T14:12:41.037Z,11.70
2018-03-29T14:15:08.504Z,11.80
2018-03-29T14:17:36.019Z,11.70
2018-03-29T14:20:03.513Z,11.70
2018-03-29T14:22:30.983Z,11.80
2018-03-29T14:24:58.447Z,11.80
2018-03-29T14:27:26.131Z,11.90
2018-03-29T14:29:53.591Z,11.50
2018-03-29T14:32:21.056Z,11.30
2018-03-29T14:34:49.289Z,11.30
2018-03-29T14:37:16.756Z,11.30
2018-03-29T14:39:44.236Z,11.20
2018-03-29T14:42:12.769Z,11.00
2018-03-29T14:44:40.246Z,11.00
2018-03-29T14:47:07.703Z,11.00
2018-03-29T14:49:35.174Z,10.90
2018-03-29T14:52:02.626Z,10.80
2018-03-29T14:54:30.098Z,10.70
2018-03-29T14:56:57.569Z,10.60
2018-03-29T14:59:25.805Z,10.50
2018-03-29T15:01:53.268Z,10.50
2018-03-29T15:04:20.734Z,10.50
2018-03-29T15:06:48.219Z,10.40
2018-03-29T15:09:16.450Z,10.20
2018-03-29T15:11:43.907Z,10.20
2018-03-29T15:14:11.402Z,10.30
2018-03-29T15:16:39.085Z,10.30
2018-03-29T15:19:07.306Z,10.30
2018-03-29T15:21:34.986Z,10.30
2018-03-29T15:24:02.445Z,10.20
2018-03-29T15:26:29.918Z,10.20
2018-03-29T15:28:57.372Z,10.30
2018-03-29T15:31:24.838Z,10.50
2018-03-29T15:33:53.058Z,10.70
2018-03-29T15:36:20.532Z,10.70
2018-03-29T15:38:47.990Z,10.70
2018-03-29T15:41:15.454Z,10.60
2018-03-29T15:43:42.914Z,10.40
2018-03-29T15:46:10.384Z,10.30
2018-03-29T15:48:38.055Z,9.90
2018-03-29T15:51:05.519Z,9.70
2018-03-29T15:53:33.745Z,9.40
2018-03-29T15:56:01.201Z,9.40
2018-03-29T15:58:28.662Z,9.30
2018-03-29T16:00:56.116Z,9.10
2018-03-29T16:03:23.583Z,9.20
2018-03-29T16:05:51.042Z,9.00
2018-03-29T16:08:18.538Z,9.10
2018-03-29T16:10:46.754Z,9.10
2018-03-29T16:13:14.222Z,9.10
2018-03-29T16:15:41.686Z,9.20
2018-03-29T16:18:09.155Z,9.20
2018-03-29T16:20:36.610Z,9.30
2018-03-29T16:23:04.104Z,9.30
2018-03-29T16:25:32.330Z,9.20
2018-03-29T16:27:59.806Z,9.20
2018-03-29T16:30:27.272Z,9.20
2018-03-29T16:32:54.725Z,9.10
2018-03-29T16:35:22.183Z,9.10
2018-03-29T16:37:49.635Z,9.00
2018-03-29T16:40:17.364Z,9.00
2018-03-29T16:42:44.818Z,9.00
2018-03-29T16:45:12.358Z,8.90
2018-03-29T16:47:40.575Z,8.90
2018-03-29T16:50:08.038Z,8.90
2018-03-29T16:52:35.510Z,8.90
2018-03-29T16:55:02.962Z,8.90
2018-03-29T16:57:30.431Z,8.80
2018-03-29T16:59:57.892Z,8.70
2018-03-29T17:02:25.354Z,8.70
2018-03-29T17:04:53.059Z,8.60
2018-03-29T17:07:20.532Z,8.60
2018-03-29T17:09:48.200Z,8.60
2018-03-29T17:12:15.658Z,8.60
2018-03-29T17:14:43.406Z,8.60
2018-03-29T17:17:10.867Z,8.50
2018-03-29T17:19:38.319Z,8.40
2018-03-29T17:22:05.807Z,8.40
2018-03-29T17:24:33.258Z,8.30
2018-03-29T17:27:00.727Z,8.30
2018-03-29T17:29:28.198Z,8.20
2018-03-29T17:31:56.662Z,8.00
2018-03-29T17:34:24.122Z,8.00
2018-03-29T17:36:51.581Z,7.90
2018-03-29T17:39:19.041Z,7.80
2018-03-29T17:41:46.503Z,7.80
2018-03-29T17:44:13.956Z,7.90
2018-03-29T17:46:41.639Z,7.80
2018-03-29T17:49:09.861Z,7.80
2018-03-29T17:51:37.314Z,7.80
2018-03-29T17:54:04.774Z,7.80
2018-03-29T17:56:32.229Z,7.80
2018-03-29T17:58:59.906Z,7.80
2018-03-29T18:01:27.383Z,7.80
2018-03-29T18:03:54.846Z,7.80
2018-03-29T18:06:22.301Z,7.80
2018-03-29T18:08:49.761Z,7.80
2018-03-29T18:11:17.227Z,7.80
2018-03-29T18:13:44.690Z,7.80
2018-03-29T18:16:12.914Z,7.70
2018-03-29T18:18:40.414Z,7.70
2018-03-29T18:21:07.861Z,7.70
2018-03-29T18:23:35.322Z,7.70
2018-03-29T18:26:02.774Z,7.60
2018-03-29T18:28:30.242Z,7.60
2018-03-29T18:30:57.749Z,7.60
2018-03-29T18:33:25.164Z,7.60
2018-03-29T18:35:52.628Z,7.60
2018-03-29T18:38:20.851Z,7.50
2018-03-29T18:40:48.314Z,7.50
2018-03-29T18:43:15.770Z,7.50
2018-03-29T18:45:43.453Z,7.40
2018-03-29T18:48:10.921Z,7.40
2018-03-29T18:50:38.392Z,7.30
2018-03-29T18:53:06.647Z,7.40
2018-03-29T18:55:34.099Z,7.40
2018-03-29T18:58:01.565Z,7.40
2018-03-29T19:00:29.816Z,7.30
2018-03-29T19:02:57.286Z,7.30
2018-03-29T19:05:24.765Z,7.30
2018-03-29T19:07:53.010Z,7.20
2018-03-29T19:10:20.478Z,7.20
2018-03-29T19:12:48.153Z,7.10
2018-03-29T19:15:16.687Z,7.10
2018-03-29T19:17:44.155Z,7.00
2018-03-29T19:20:11.623Z,7.00
2018-03-29T19:22:39.094Z,7.00
2018-03-29T19:25:06.559Z,6.90
2018-03-29T19:27:34.031Z,6.90
2018-03-29T19:30:01.499Z,6.80
2018-03-29T19:32:29.720Z,6.80
2018-03-29T19:34:57.238Z,6.80
2018-03-29T19:37:24.654Z,6.80
2018-03-29T19:39:53.626Z,6.90
2018-03-29T19:42:21.086Z,6.80
2018-03-29T19:44:48.555Z,6.90
2018-03-29T19:47:16.186Z,6.80
2018-03-29T19:49:43.659Z,6.80
2018-03-29T19:52:11.412Z,6.80
2018-03-29T19:54:38.973Z,6.60
2018-03-29T19:57:06.439Z,6.60
2018-03-29T19:59:33.902Z,6.60
2018-03-29T20:02:01.345Z,6.40
2018-03-29T20:04:28.798Z,6.40
2018-03-29T20:06:57.028Z,6.30
2018-03-29T20:09:24.510Z,6.30
2018-03-29T20:11:52.742Z,6.20
2018-03-29T20:14:20.202Z,6.20
2018-03-29T20:16:47.678Z,6.20
2018-03-29T20:19:15.131Z,6.20
2018-03-29T20:21:42.596Z,6.10
2018-03-29T20:24:10.843Z,6.10
2018-03-29T20:26:38.303Z,6.00
2018-03-29T20:29:05.762Z,6.00
2018-03-29T20:31:33.218Z,6.00
2018-03-29T20:34:00.689Z,6.00
2018-03-29T20:36:28.142Z,5.90
2018-03-29T20:38:55.605Z,5.90
2018-03-29T20:41:23.853Z,5.90
2018-03-29T20:43:51.311Z,5.90
2018-03-29T20:46:18.783Z,5.80
2018-03-29T20:48:46.239Z,5.80
2018-03-29T20:51:13.700Z,5.70
2018-03-29T20:53:41.154Z,5.70
2018-03-29T20:56:08.620Z,5.60
2018-03-29T20:58:36.091Z,5.60
2018-03-29T21:01:04.546Z,5.50
2018-03-29T21:03:32.008Z,5.50
2018-03-29T21:05:59.484Z,5.50
2018-03-29T21:08:27.715Z,5.50
2018-03-29T21:10:55.234Z,5.40
2018-03-29T21:13:22.663Z,5.40
2018-03-29T21:15:50.110Z,5.40
2018-03-29T21:18:17.566Z,5.30
2018-03-29T21:20:45.028Z,5.30
2018-03-29T21:23:12.494Z,5.30
2018-03-29T21:25:39.958Z,5.20
2018-03-29T21:28:07.423Z,5.20
2018-03-29T21:30:35.856Z,5.10
2018-03-29T21:33:03.324Z,5.10
2018-03-29T21:35:30.775Z,5.10
2018-03-29T21:37:58.883Z,5.00
2018-03-29T21:40:26.590Z,5.00
2018-03-29T21:42:54.063Z,4.90
2018-03-29T21:45:21.520Z,4.90
2018-03-29T21:47:48.978Z,4.90
2018-03-29T21:50:16.438Z,4.80
2018-03-29T21:52:43.889Z,4.70
2018-03-29T21:55:11.358Z,4.70
2018-03-29T21:57:38.823Z,4.70
2018-03-29T22:00:07.956Z,4.70
2018-03-29T22:02:36.183Z,4.70
2018-03-29T22:05:04.414Z,4.70
2018-03-29T22:07:31.875Z,4.70
2018-03-29T22:09:59.334Z,4.70
2018-03-29T22:12:26.811Z,4.60
2018-03-29T22:14:54.294Z,4.60
2018-03-29T22:17:21.758Z,4.60
2018-03-29T22:19:49.215Z,4.60
2018-03-29T22:22:16.662Z,4.50
2018-03-29T22:24:44.141Z,4.50
2018-03-29T22:27:11.590Z,4.40
2018-03-29T22:29:39.063Z,4.40
2018-03-29T22:32:06.524Z,4.30
2018-03-29T22:34:34.762Z,4.30
2018-03-29T22:37:02.206Z,4.20
2018-03-29T22:39:29.670Z,4.20
2018-03-29T22:41:57.131Z,4.20
2018-03-29T22:44:24.582Z,4.10
2018-03-29T22:46:52.334Z,4.10
2018-03-29T22:49:19.794Z,4.10
2018-03-29T22:51:47.250Z,4.10
2018-03-29T22:54:14.723Z,4.00
2018-03-29T22:56:42.182Z,4.00
2018-03-29T22:59:09.643Z,3.90
2018-03-29T23:01:37.108Z,3.90
2018-03-29T23:04:04.603Z,3.90
2018-03-29T23:06:32.818Z,3.90
2018-03-29T23:09:00.277Z,3.90
2018-03-29T23:11:28.038Z,3.90
2018-03-29T23:13:55.503Z,3.80
2018-03-29T23:16:22.954Z,3.80
2018-03-29T23:18:50.403Z,3.90
2018-03-29T23:21:18.182Z,3.80
2018-03-29T23:23:45.631Z,3.80
2018-03-29T23:26:13.390Z,3.70
2018-03-29T23:28:40.843Z,3.70
2018-03-29T23:31:08.309Z,3.70
2018-03-29T23:33:35.772Z,3.70
2018-03-29T23:36:03.527Z,3.70
2018-03-29T23:38:30.986Z,3.70
2018-03-29T23:40:58.441Z,3.60
2018-03-29T23:43:25.903Z,3.60
2018-03-29T23:45:53.357Z,3.60
2018-03-29T23:48:21.118Z,3.50
2018-03-29T23:50:48.574Z,3.50
2018-03-29T23:53:16.033Z,3.50
2018-03-29T23:55:43.491Z,3.40
2018-03-29T23:58:16.880Z,3.30
